NBT65C ENGM-ESSA
Flight info
| Callsign | NBT65C |
|---|---|
| Flight time | 0h 38m |
| Altitude | 27000 |
| Route | MASEV Z183 LEGPO DCT ELTOK |
| Aircraft | B789/H-SDE1E2E3FGHIJ2J3J4J5M1RWXY/LB1D1 |
Departure
| Time | 2026-05-06 14:29 |
|---|---|
| Airport | Oslo-Gardermoen International Airport (ENGM) |
Arrival
| Time | 2026-05-06 15:07 |
|---|---|
| Airport | Stockholm-Arlanda Airport (ESSA) |
| Time | Latitude | Longitude | Altitude | Speed | Heading |
|---|---|---|---|---|---|
| 2026-05-06 14:01 | 60.19245 | 11.10995 | 690 ft | 0 kts | 16° |
| 2026-05-06 14:20 | 60.19229 | 11.10986 | 682 ft | 2 kts | 17° |
| 2026-05-06 14:20 | 60.19214 | 11.10975 | 687 ft | 2 kts | 19° |
| 2026-05-06 14:20 | 60.19198 | 11.10964 | 682 ft | 2 kts | 22° |
| 2026-05-06 14:21 | 60.19183 | 11.10949 | 682 ft | 2 kts | 34° |
| 2026-05-06 14:21 | 60.19173 | 11.10924 | 681 ft | 2 kts | 80° |
| 2026-05-06 14:21 | 60.19173 | 11.10901 | 681 ft | 1 kts | 105° |
| 2026-05-06 14:21 | 60.19174 | 11.10900 | 681 ft | 0 kts | 105° |
| 2026-05-06 14:25 | 60.19172 | 11.10909 | 690 ft | 3 kts | 105° |
| 2026-05-06 14:25 | 60.19162 | 11.10985 | 686 ft | 10 kts | 105° |
| 2026-05-06 14:25 | 60.19185 | 11.11144 | 684 ft | 15 kts | 28° |
| 2026-05-06 14:25 | 60.19324 | 11.11223 | 684 ft | 27 kts | 15° |
| 2026-05-06 14:26 | 60.19522 | 11.11340 | 683 ft | 32 kts | 16° |
| 2026-05-06 14:26 | 60.19743 | 11.11468 | 685 ft | 34 kts | 16° |
| 2026-05-06 14:26 | 60.19981 | 11.11605 | 687 ft | 37 kts | 16° |
| 2026-05-06 14:26 | 60.20135 | 11.11695 | 687 ft | 15 kts | 17° |
| 2026-05-06 14:27 | 60.20167 | 11.11838 | 686 ft | 13 kts | 102° |
| 2026-05-06 14:27 | 60.20142 | 11.12029 | 692 ft | 15 kts | 106° |
| 2026-05-06 14:27 | 60.20086 | 11.12207 | 686 ft | 16 kts | 160° |
| 2026-05-06 14:27 | 60.20051 | 11.12207 | 690 ft | 0 kts | 194° |
| 2026-05-06 14:28 | 60.20041 | 11.12201 | 689 ft | 11 kts | 195° |
| 2026-05-06 14:28 | 60.19761 | 11.12039 | 685 ft | 76 kts | 196° |
| 2026-05-06 14:28 | 60.19048 | 11.11630 | 686 ft | 137 kts | 195° |
| 2026-05-06 14:29 | 60.17964 | 11.11004 | 802 ft | 179 kts | 194° |
| 2026-05-06 14:29 | 60.16776 | 11.10344 | 1568 ft | 178 kts | 197° |
| 2026-05-06 14:29 | 60.15577 | 11.09630 | 2288 ft | 180 kts | 199° |
| 2026-05-06 14:29 | 60.14358 | 11.08929 | 2840 ft | 190 kts | 197° |
| 2026-05-06 14:30 | 60.12938 | 11.09186 | 3029 ft | 230 kts | 155° |
| 2026-05-06 14:30 | 60.11648 | 11.11407 | 3406 ft | 259 kts | 134° |
| 2026-05-06 14:30 | 60.10462 | 11.14225 | 4220 ft | 264 kts | 130° |
| 2026-05-06 14:30 | 60.09264 | 11.17041 | 5061 ft | 267 kts | 133° |
| 2026-05-06 14:31 | 60.08044 | 11.19883 | 5841 ft | 272 kts | 123° |
| 2026-05-06 14:31 | 60.07521 | 11.23527 | 6611 ft | 277 kts | 91° |
| 2026-05-06 14:31 | 60.07928 | 11.27272 | 7545 ft | 279 kts | 61° |
| 2026-05-06 14:31 | 60.09137 | 11.30288 | 8372 ft | 282 kts | 44° |
| 2026-05-06 14:32 | 60.10554 | 11.33064 | 9252 ft | 286 kts | 42° |
| 2026-05-06 14:32 | 60.12011 | 11.35810 | 10065 ft | 290 kts | 43° |
| 2026-05-06 14:32 | 60.13526 | 11.38719 | 10362 ft | 315 kts | 43° |
| 2026-05-06 14:32 | 60.15167 | 11.41925 | 10496 ft | 343 kts | 43° |
| 2026-05-06 14:33 | 60.16873 | 11.45368 | 11105 ft | 350 kts | 48° |
| 2026-05-06 14:33 | 60.18391 | 11.49194 | 11717 ft | 358 kts | 49° |
| 2026-05-06 14:33 | 60.20008 | 11.53049 | 12393 ft | 364 kts | 48° |
| 2026-05-06 14:33 | 60.21654 | 11.57000 | 13046 ft | 372 kts | 49° |
| 2026-05-06 14:34 | 60.23305 | 11.61086 | 13717 ft | 379 kts | 49° |
| 2026-05-06 14:34 | 60.24976 | 11.65234 | 14314 ft | 385 kts | 48° |
| 2026-05-06 14:34 | 60.26541 | 11.69664 | 14871 ft | 393 kts | 64° |
| 2026-05-06 14:34 | 60.27358 | 11.74943 | 15477 ft | 399 kts | 84° |
| 2026-05-06 14:35 | 60.27312 | 11.80530 | 16053 ft | 401 kts | 99° |
| 2026-05-06 14:35 | 60.26950 | 11.86141 | 16588 ft | 406 kts | 101° |
| 2026-05-06 14:35 | 60.26521 | 11.91797 | 17188 ft | 411 kts | 101° |
| 2026-05-06 14:35 | 60.25981 | 11.97464 | 17701 ft | 413 kts | 110° |
| 2026-05-06 14:36 | 60.25170 | 12.03049 | 18221 ft | 418 kts | 110° |
| 2026-05-06 14:36 | 60.24357 | 12.08685 | 18721 ft | 422 kts | 110° |
| 2026-05-06 14:36 | 60.23540 | 12.14311 | 19210 ft | 425 kts | 110° |
| 2026-05-06 14:36 | 60.22703 | 12.20047 | 19720 ft | 429 kts | 110° |
| 2026-05-06 14:37 | 60.21860 | 12.25820 | 20214 ft | 432 kts | 111° |
| 2026-05-06 14:37 | 60.21004 | 12.31655 | 20661 ft | 437 kts | 111° |
| 2026-05-06 14:37 | 60.20137 | 12.37544 | 21115 ft | 440 kts | 111° |
| 2026-05-06 14:37 | 60.19263 | 12.43460 | 21572 ft | 443 kts | 111° |
| 2026-05-06 14:38 | 60.18379 | 12.49426 | 22025 ft | 447 kts | 111° |
| 2026-05-06 14:38 | 60.17649 | 12.55528 | 22421 ft | 455 kts | 101° |
| 2026-05-06 14:38 | 60.17275 | 12.61878 | 22788 ft | 460 kts | 101° |
| 2026-05-06 14:38 | 60.16857 | 12.68267 | 23227 ft | 462 kts | 102° |
| 2026-05-06 14:39 | 60.16441 | 12.74683 | 23591 ft | 466 kts | 101° |
| 2026-05-06 14:39 | 60.16039 | 12.81140 | 24025 ft | 465 kts | 101° |
| 2026-05-06 14:39 | 60.15640 | 12.87496 | 24492 ft | 464 kts | 102° |
| 2026-05-06 14:39 | 60.15215 | 12.94000 | 24926 ft | 464 kts | 102° |
| 2026-05-06 14:40 | 60.14792 | 13.00421 | 25363 ft | 463 kts | 103° |
| 2026-05-06 14:40 | 60.14379 | 13.06736 | 25839 ft | 463 kts | 103° |
| 2026-05-06 14:40 | 60.13958 | 13.13146 | 26303 ft | 462 kts | 103° |
| 2026-05-06 14:40 | 60.13532 | 13.19538 | 26799 ft | 462 kts | 104° |
| 2026-05-06 14:41 | 60.13097 | 13.25958 | 26905 ft | 468 kts | 104° |
| 2026-05-06 14:41 | 60.12663 | 13.32397 | 26894 ft | 463 kts | 104° |
| 2026-05-06 14:41 | 60.12232 | 13.38779 | 26922 ft | 460 kts | 104° |
| 2026-05-06 14:41 | 60.11795 | 13.45127 | 26930 ft | 459 kts | 104° |
| 2026-05-06 14:42 | 60.11353 | 13.51474 | 26930 ft | 460 kts | 104° |
| 2026-05-06 14:42 | 60.10911 | 13.57825 | 26935 ft | 460 kts | 104° |
| 2026-05-06 14:42 | 60.10468 | 13.64174 | 26933 ft | 460 kts | 104° |
| 2026-05-06 14:42 | 60.10020 | 13.70516 | 26936 ft | 460 kts | 104° |
| 2026-05-06 14:43 | 60.09567 | 13.76869 | 26928 ft | 460 kts | 104° |
| 2026-05-06 14:43 | 60.09113 | 13.83216 | 26927 ft | 460 kts | 104° |
| 2026-05-06 14:43 | 60.08656 | 13.89548 | 26929 ft | 460 kts | 104° |
| 2026-05-06 14:43 | 60.08196 | 13.95894 | 26936 ft | 460 kts | 104° |
| 2026-05-06 14:44 | 60.07731 | 14.02243 | 26930 ft | 460 kts | 104° |
| 2026-05-06 14:44 | 60.07265 | 14.08578 | 26929 ft | 460 kts | 104° |
| 2026-05-06 14:44 | 60.06797 | 14.14903 | 26929 ft | 460 kts | 104° |
| 2026-05-06 14:45 | 60.05848 | 14.27568 | 26932 ft | 460 kts | 105° |
| 2026-05-06 14:45 | 60.05369 | 14.33905 | 26930 ft | 460 kts | 105° |
| 2026-05-06 14:45 | 60.04888 | 14.40220 | 26929 ft | 460 kts | 105° |
| 2026-05-06 14:45 | 60.04403 | 14.46554 | 26934 ft | 460 kts | 105° |
| 2026-05-06 14:46 | 60.03914 | 14.52893 | 26931 ft | 461 kts | 105° |
| 2026-05-06 14:46 | 60.03423 | 14.59221 | 26928 ft | 461 kts | 105° |
| 2026-05-06 14:46 | 60.02934 | 14.65469 | 26927 ft | 461 kts | 105° |
| 2026-05-06 14:46 | 60.02437 | 14.71796 | 26936 ft | 460 kts | 105° |
| 2026-05-06 14:47 | 60.01937 | 14.78113 | 26938 ft | 460 kts | 105° |
| 2026-05-06 14:47 | 60.01433 | 14.84434 | 26939 ft | 460 kts | 105° |
| 2026-05-06 14:47 | 60.00926 | 14.90766 | 26935 ft | 461 kts | 105° |
| 2026-05-06 14:47 | 60.00404 | 14.97176 | 26951 ft | 475 kts | 105° |
| 2026-05-06 14:48 | 59.99863 | 15.03787 | 26955 ft | 491 kts | 105° |
| 2026-05-06 14:48 | 59.99306 | 15.10624 | 26954 ft | 506 kts | 105° |
| 2026-05-06 14:48 | 59.98732 | 15.17655 | 26791 ft | 521 kts | 105° |
| 2026-05-06 14:48 | 59.98135 | 15.24861 | 26152 ft | 527 kts | 105° |
| 2026-05-06 14:49 | 59.97543 | 15.32032 | 25517 ft | 519 kts | 105° |
| 2026-05-06 14:49 | 59.96951 | 15.39100 | 24895 ft | 515 kts | 105° |
| 2026-05-06 14:49 | 59.96347 | 15.46173 | 24269 ft | 520 kts | 104° |
| 2026-05-06 14:49 | 59.95736 | 15.53301 | 23648 ft | 522 kts | 104° |
| 2026-05-06 14:50 | 59.95127 | 15.60471 | 22976 ft | 523 kts | 104° |
| 2026-05-06 14:50 | 59.94513 | 15.67621 | 22337 ft | 524 kts | 104° |
| 2026-05-06 14:50 | 59.93890 | 15.74781 | 21724 ft | 518 kts | 104° |
| 2026-05-06 14:50 | 59.93281 | 15.81765 | 21113 ft | 505 kts | 103° |
| 2026-05-06 14:51 | 59.92690 | 15.88497 | 20529 ft | 493 kts | 103° |
| 2026-05-06 14:51 | 59.92099 | 15.95154 | 19956 ft | 482 kts | 103° |
| 2026-05-06 14:51 | 59.91520 | 16.01649 | 19395 ft | 471 kts | 103° |
| 2026-05-06 14:51 | 59.90950 | 16.08016 | 18850 ft | 461 kts | 103° |
| 2026-05-06 14:52 | 59.90389 | 16.14249 | 18311 ft | 452 kts | 103° |
| 2026-05-06 14:52 | 59.89837 | 16.20345 | 17734 ft | 442 kts | 103° |
| 2026-05-06 14:52 | 59.89294 | 16.26310 | 17231 ft | 432 kts | 103° |
| 2026-05-06 14:52 | 59.88762 | 16.32124 | 16743 ft | 422 kts | 103° |
| 2026-05-06 14:53 | 59.88238 | 16.37816 | 16246 ft | 413 kts | 102° |
| 2026-05-06 14:53 | 59.87723 | 16.43378 | 15765 ft | 404 kts | 102° |
| 2026-05-06 14:53 | 59.87218 | 16.48822 | 15299 ft | 395 kts | 102° |
| 2026-05-06 14:53 | 59.86720 | 16.54153 | 14839 ft | 387 kts | 102° |
| 2026-05-06 14:54 | 59.86231 | 16.59377 | 14390 ft | 380 kts | 102° |
| 2026-05-06 14:54 | 59.85749 | 16.64483 | 13953 ft | 373 kts | 102° |
| 2026-05-06 14:54 | 59.85275 | 16.69502 | 13493 ft | 365 kts | 102° |
| 2026-05-06 14:54 | 59.84810 | 16.74406 | 13067 ft | 357 kts | 102° |
| 2026-05-06 14:55 | 59.84506 | 16.77596 | 12780 ft | 351 kts | 102° |
| 2026-05-06 14:55 | 59.83903 | 16.83891 | 12227 ft | 341 kts | 102° |
| 2026-05-06 14:55 | 59.83463 | 16.88471 | 11845 ft | 334 kts | 102° |
| 2026-05-06 14:55 | 59.83176 | 16.91445 | 11607 ft | 329 kts | 102° |
| 2026-05-06 14:56 | 59.82744 | 16.95909 | 11215 ft | 328 kts | 102° |
| 2026-05-06 14:56 | 59.82628 | 17.01814 | 10764 ft | 319 kts | 81° |
| 2026-05-06 14:56 | 59.82901 | 17.06115 | 10466 ft | 309 kts | 85° |
| 2026-05-06 14:56 | 59.83035 | 17.08966 | 10275 ft | 303 kts | 85° |
| 2026-05-06 14:57 | 59.83248 | 17.13079 | 9982 ft | 295 kts | 84° |
| 2026-05-06 14:57 | 59.83485 | 17.17066 | 9678 ft | 287 kts | 83° |
| 2026-05-06 14:57 | 59.83716 | 17.20964 | 9422 ft | 283 kts | 83° |
| 2026-05-06 14:57 | 59.83840 | 17.24833 | 9144 ft | 279 kts | 98° |
| 2026-05-06 14:58 | 59.83202 | 17.28437 | 8908 ft | 276 kts | 118° |
| 2026-05-06 14:58 | 59.82946 | 17.29430 | 8832 ft | 276 kts | 119° |
| 2026-05-06 14:58 | 59.82283 | 17.31829 | 8649 ft | 275 kts | 121° |
| 2026-05-06 14:58 | 59.81322 | 17.35105 | 8363 ft | 274 kts | 121° |
| 2026-05-06 14:59 | 59.80384 | 17.38394 | 8096 ft | 272 kts | 120° |
| 2026-05-06 14:59 | 59.79721 | 17.41882 | 7816 ft | 272 kts | 92° |
| 2026-05-06 14:59 | 59.80031 | 17.45563 | 7613 ft | 272 kts | 72° |
| 2026-05-06 14:59 | 59.80674 | 17.49087 | 7418 ft | 270 kts | 68° |
| 2026-05-06 15:00 | 59.81366 | 17.52540 | 7249 ft | 268 kts | 71° |
| 2026-05-06 15:00 | 59.81719 | 17.56137 | 7065 ft | 264 kts | 84° |
| 2026-05-06 15:00 | 59.81867 | 17.59794 | 6875 ft | 266 kts | 86° |
| 2026-05-06 15:00 | 59.81978 | 17.63468 | 6675 ft | 266 kts | 87° |
| 2026-05-06 15:01 | 59.82084 | 17.67135 | 6454 ft | 265 kts | 87° |
| 2026-05-06 15:01 | 59.82156 | 17.70798 | 6024 ft | 268 kts | 95° |
| 2026-05-06 15:01 | 59.81827 | 17.74479 | 5282 ft | 273 kts | 97° |
| 2026-05-06 15:01 | 59.81769 | 17.78295 | 4530 ft | 277 kts | 90° |
| 2026-05-06 15:02 | 59.81815 | 17.82007 | 3802 ft | 261 kts | 89° |
| 2026-05-06 15:02 | 59.81880 | 17.85570 | 3315 ft | 255 kts | 88° |
| 2026-05-06 15:02 | 59.81950 | 17.89162 | 3017 ft | 264 kts | 88° |
| 2026-05-06 15:02 | 59.82000 | 17.92701 | 2709 ft | 257 kts | 93° |
| 2026-05-06 15:03 | 59.81426 | 17.95930 | 2478 ft | 245 kts | 130° |
| 2026-05-06 15:03 | 59.80209 | 17.98015 | 2507 ft | 222 kts | 153° |
| 2026-05-06 15:03 | 59.78778 | 17.99058 | 2496 ft | 216 kts | 163° |
| 2026-05-06 15:03 | 59.77411 | 17.99931 | 2435 ft | 199 kts | 165° |
| 2026-05-06 15:04 | 59.76105 | 17.99985 | 2287 ft | 183 kts | 193° |
| 2026-05-06 15:04 | 59.74877 | 17.99484 | 2062 ft | 177 kts | 191° |
| 2026-05-06 15:04 | 59.73701 | 17.99091 | 1827 ft | 165 kts | 191° |
| 2026-05-06 15:04 | 59.72580 | 17.98692 | 1608 ft | 163 kts | 191° |
| 2026-05-06 15:05 | 59.71512 | 17.98305 | 1390 ft | 150 kts | 191° |
| 2026-05-06 15:05 | 59.70505 | 17.97939 | 1201 ft | 148 kts | 191° |
| 2026-05-06 15:05 | 59.69502 | 17.97572 | 1013 ft | 146 kts | 191° |
| 2026-05-06 15:05 | 59.68503 | 17.97207 | 812 ft | 144 kts | 192° |
| 2026-05-06 15:06 | 59.67506 | 17.96839 | 612 ft | 148 kts | 191° |
| 2026-05-06 15:06 | 59.66513 | 17.96476 | 425 ft | 144 kts | 191° |
| 2026-05-06 15:06 | 59.65526 | 17.96116 | 275 ft | 144 kts | 192° |
| 2026-05-06 15:06 | 59.64547 | 17.95765 | 133 ft | 140 kts | 191° |
| 2026-05-06 15:07 | 59.63771 | 17.95485 | 119 ft | 77 kts | 190° |
| 2026-05-06 15:07 | 59.63419 | 17.95304 | 122 ft | 44 kts | 208° |
| 2026-05-06 15:07 | 59.63247 | 17.95022 | 125 ft | 15 kts | 248° |
| 2026-05-06 15:07 | 59.63277 | 17.94916 | 128 ft | 8 kts | 341° |
| 2026-05-06 15:08 | 59.63355 | 17.94922 | 125 ft | 17 kts | 13° |
| 2026-05-06 15:08 | 59.63504 | 17.94980 | 120 ft | 25 kts | 10° |
| 2026-05-06 15:08 | 59.63685 | 17.95047 | 115 ft | 28 kts | 11° |
| 2026-05-06 15:08 | 59.63879 | 17.95119 | 113 ft | 29 kts | 10° |
| 2026-05-06 15:09 | 59.64080 | 17.95190 | 110 ft | 30 kts | 11° |
| 2026-05-06 15:09 | 59.64247 | 17.95248 | 108 ft | 16 kts | 9° |
| 2026-05-06 15:09 | 59.64365 | 17.95294 | 111 ft | 19 kts | 11° |
| 2026-05-06 15:09 | 59.64513 | 17.95350 | 110 ft | 27 kts | 10° |
| 2026-05-06 15:10 | 59.64778 | 17.95446 | 111 ft | 62 kts | 11° |
| 2026-05-06 15:10 | 59.65209 | 17.95429 | 122 ft | 62 kts | 345° |
| 2026-05-06 15:10 | 59.65636 | 17.95202 | 130 ft | 42 kts | 344° |
| 2026-05-06 15:10 | 59.65748 | 17.95010 | 128 ft | 21 kts | 265° |
| 2026-05-06 15:11 | 59.65683 | 17.94492 | 127 ft | 70 kts | 256° |
| 2026-05-06 15:11 | 59.65563 | 17.93544 | 118 ft | 68 kts | 256° |
| 2026-05-06 15:11 | 59.65494 | 17.93021 | 115 ft | 23 kts | 255° |
| 2026-05-06 15:11 | 59.65450 | 17.92775 | 114 ft | 22 kts | 246° |
| 2026-05-06 15:12 | 59.65384 | 17.92685 | 115 ft | 4 kts | 167° |
| 2026-05-06 15:12 | 59.65381 | 17.92687 | 116 ft | 4 kts | 164° |
| 2026-05-06 15:12 | 59.65340 | 17.92792 | 113 ft | 5 kts | 98° |
| 2026-05-06 15:12 | 59.65337 | 17.92853 | 115 ft | 5 kts | 99° |
| 2026-05-06 15:13 | 59.65335 | 17.92877 | 116 ft | 5 kts | 99° |
| 2026-05-06 15:13 | 59.65335 | 17.92878 | 116 ft | 0 kts | 99° |